sensor_id;sensor_type;location;lat;lon;timestamp;P1;durP1;ratioP1;P2;durP2;ratioP2
76423;SDS011;65257;52.104;4.268;2023-02-17T00:03:47;43.88;;;11.23;;
76423;SDS011;65257;52.104;4.268;2023-02-17T00:06:17;53.13;;;13.05;;
76423;SDS011;65257;52.104;4.268;2023-02-17T00:08:44;54.92;;;14.18;;
76423;SDS011;65257;52.104;4.268;2023-02-17T00:11:10;54.50;;;13.30;;
76423;SDS011;65257;52.104;4.268;2023-02-17T00:13:37;46.83;;;11.90;;
76423;SDS011;65257;52.104;4.268;2023-02-17T00:16:06;35.20;;;10.13;;
76423;SDS011;65257;52.104;4.268;2023-02-17T00:18:37;45.97;;;11.45;;
76423;SDS011;65257;52.104;4.268;2023-02-17T00:21:09;57.63;;;12.38;;
76423;SDS011;65257;52.104;4.268;2023-02-17T00:23:38;47.40;;;12.23;;
76423;SDS011;65257;52.104;4.268;2023-02-17T00:26:05;49.38;;;12.55;;
76423;SDS011;65257;52.104;4.268;2023-02-17T00:28:31;35.45;;;9.65;;
76423;SDS011;65257;52.104;4.268;2023-02-17T00:30:56;32.58;;;9.43;;
76423;SDS011;65257;52.104;4.268;2023-02-17T00:33:22;39.80;;;9.65;;
76423;SDS011;65257;52.104;4.268;2023-02-17T00:35:47;44.58;;;12.57;;
76423;SDS011;65257;52.104;4.268;2023-02-17T00:38:12;33.30;;;11.35;;
76423;SDS011;65257;52.104;4.268;2023-02-17T00:40:38;37.03;;;11.82;;
76423;SDS011;65257;52.104;4.268;2023-02-17T00:43:03;44.60;;;11.85;;
76423;SDS011;65257;52.104;4.268;2023-02-17T00:45:28;43.70;;;14.50;;
76423;SDS011;65257;52.104;4.268;2023-02-17T00:47:54;45.42;;;13.43;;
76423;SDS011;65257;52.104;4.268;2023-02-17T00:50:19;41.15;;;12.82;;
76423;SDS011;65257;52.104;4.268;2023-02-17T00:52:44;39.50;;;11.05;;
76423;SDS011;65257;52.104;4.268;2023-02-17T00:55:10;55.00;;;16.25;;
76423;SDS011;65257;52.104;4.268;2023-02-17T00:57:35;36.97;;;11.48;;
76423;SDS011;65257;52.104;4.268;2023-02-17T01:00:01;33.97;;;10.38;;
76423;SDS011;65257;52.104;4.268;2023-02-17T01:02:27;35.70;;;10.98;;
76423;SDS011;65257;52.104;4.268;2023-02-17T01:04:53;34.05;;;10.48;;
76423;SDS011;65257;52.104;4.268;2023-02-17T01:07:18;29.30;;;9.77;;
76423;SDS011;65257;52.104;4.268;2023-02-17T01:09:43;42.00;;;13.32;;
76423;SDS011;65257;52.104;4.268;2023-02-17T01:12:10;33.53;;;12.48;;
76423;SDS011;65257;52.104;4.268;2023-02-17T01:14:36;24.85;;;8.50;;
76423;SDS011;65257;52.104;4.268;2023-02-17T01:17:02;25.20;;;10.55;;
76423;SDS011;65257;52.104;4.268;2023-02-17T01:19:27;34.05;;;10.48;;
76423;SDS011;65257;52.104;4.268;2023-02-17T01:21:53;40.40;;;12.63;;
76423;SDS011;65257;52.104;4.268;2023-02-17T01:24:18;44.03;;;12.57;;
76423;SDS011;65257;52.104;4.268;2023-02-17T01:26:44;28.95;;;10.93;;
76423;SDS011;65257;52.104;4.268;2023-02-17T01:29:09;37.55;;;13.25;;
76423;SDS011;65257;52.104;4.268;2023-02-17T01:31:35;32.92;;;12.13;;
76423;SDS011;65257;52.104;4.268;2023-02-17T01:34:01;33.40;;;12.98;;
76423;SDS011;65257;52.104;4.268;2023-02-17T01:36:28;26.33;;;12.80;;
76423;SDS011;65257;52.104;4.268;2023-02-17T01:38:53;49.47;;;13.38;;
76423;SDS011;65257;52.104;4.268;2023-02-17T01:41:20;32.58;;;11.63;;
76423;SDS011;65257;52.104;4.268;2023-02-17T01:44:06;31.42;;;10.48;;
76423;SDS011;65257;52.104;4.268;2023-02-17T01:46:34;26.83;;;10.95;;
76423;SDS011;65257;52.104;4.268;2023-02-17T01:49:02;32.22;;;11.10;;
76423;SDS011;65257;52.104;4.268;2023-02-17T01:51:33;40.80;;;12.48;;
76423;SDS011;65257;52.104;4.268;2023-02-17T01:54:06;27.05;;;9.00;;
76423;SDS011;65257;52.104;4.268;2023-02-17T01:56:37;25.13;;;9.60;;
76423;SDS011;65257;52.104;4.268;2023-02-17T01:59:08;24.45;;;9.05;;
76423;SDS011;65257;52.104;4.268;2023-02-17T02:01:38;29.77;;;11.18;;
76423;SDS011;65257;52.104;4.268;2023-02-17T02:04:04;23.05;;;10.55;;
76423;SDS011;65257;52.104;4.268;2023-02-17T02:06:32;24.63;;;10.20;;
76423;SDS011;65257;52.104;4.268;2023-02-17T02:11:31;27.70;;;9.82;;
76423;SDS011;65257;52.104;4.268;2023-02-17T02:13:57;28.48;;;8.82;;
76423;SDS011;65257;52.104;4.268;2023-02-17T02:33:02;29.98;;;10.13;;
76423;SDS011;65257;52.104;4.268;2023-02-17T02:35:44;30.63;;;9.40;;
76423;SDS011;65257;52.104;4.268;2023-02-17T02:40:57;30.10;;;9.75;;
76423;SDS011;65257;52.104;4.268;2023-02-17T02:43:29;32.45;;;11.60;;
76423;SDS011;65257;52.104;4.268;2023-02-17T02:45:55;31.40;;;9.88;;
76423;SDS011;65257;52.104;4.268;2023-02-17T02:48:20;34.17;;;12.27;;
76423;SDS011;65257;52.104;4.268;2023-02-17T02:56:50;29.67;;;9.68;;
76423;SDS011;65257;52.104;4.268;2023-02-17T03:05:19;26.38;;;11.05;;
76423;SDS011;65257;52.104;4.268;2023-02-17T03:10:43;37.33;;;11.60;;
76423;SDS011;65257;52.104;4.268;2023-02-17T03:13:10;38.65;;;12.48;;
76423;SDS011;65257;52.104;4.268;2023-02-17T03:15:35;30.25;;;9.70;;
76423;SDS011;65257;52.104;4.268;2023-02-17T03:18:01;32.10;;;10.55;;
76423;SDS011;65257;52.104;4.268;2023-02-17T03:20:30;33.58;;;10.32;;
76423;SDS011;65257;52.104;4.268;2023-02-17T03:23:00;30.88;;;9.00;;
76423;SDS011;65257;52.104;4.268;2023-02-17T03:25:25;47.08;;;14.40;;
76423;SDS011;65257;52.104;4.268;2023-02-17T03:27:51;27.92;;;9.50;;
76423;SDS011;65257;52.104;4.268;2023-02-17T03:30:16;23.65;;;8.65;;
76423;SDS011;65257;52.104;4.268;2023-02-17T03:32:42;43.28;;;11.88;;
76423;SDS011;65257;52.104;4.268;2023-02-17T03:35:08;37.67;;;11.57;;
76423;SDS011;65257;52.104;4.268;2023-02-17T03:37:33;44.13;;;9.55;;
76423;SDS011;65257;52.104;4.268;2023-02-17T03:39:59;50.85;;;11.77;;
76423;SDS011;65257;52.104;4.268;2023-02-17T03:42:24;34.63;;;9.65;;
76423;SDS011;65257;52.104;4.268;2023-02-17T03:44:50;43.03;;;10.77;;
76423;SDS011;65257;52.104;4.268;2023-02-17T03:47:15;34.55;;;9.68;;
76423;SDS011;65257;52.104;4.268;2023-02-17T03:49:40;37.20;;;9.88;;
76423;SDS011;65257;52.104;4.268;2023-02-17T03:52:06;25.70;;;9.27;;
76423;SDS011;65257;52.104;4.268;2023-02-17T03:54:31;32.55;;;9.63;;
76423;SDS011;65257;52.104;4.268;2023-02-17T03:56:57;39.95;;;11.40;;
76423;SDS011;65257;52.104;4.268;2023-02-17T03:59:23;36.75;;;10.40;;
76423;SDS011;65257;52.104;4.268;2023-02-17T04:01:49;35.58;;;8.32;;
76423;SDS011;65257;52.104;4.268;2023-02-17T04:04:14;43.25;;;10.57;;
76423;SDS011;65257;52.104;4.268;2023-02-17T04:06:40;32.50;;;8.98;;
76423;SDS011;65257;52.104;4.268;2023-02-17T04:09:05;42.97;;;9.38;;
76423;SDS011;65257;52.104;4.268;2023-02-17T04:11:31;37.28;;;10.13;;
76423;SDS011;65257;52.104;4.268;2023-02-17T04:13:56;17.88;;;8.15;;
76423;SDS011;65257;52.104;4.268;2023-02-17T04:16:22;41.70;;;8.73;;
76423;SDS011;65257;52.104;4.268;2023-02-17T04:18:48;27.35;;;9.57;;
76423;SDS011;65257;52.104;4.268;2023-02-17T04:21:13;39.50;;;8.93;;
76423;SDS011;65257;52.104;4.268;2023-02-17T04:23:38;47.60;;;12.80;;
76423;SDS011;65257;52.104;4.268;2023-02-17T04:26:04;44.53;;;12.52;;
76423;SDS011;65257;52.104;4.268;2023-02-17T04:28:30;39.92;;;11.45;;
76423;SDS011;65257;52.104;4.268;2023-02-17T04:30:57;57.60;;;13.77;;
76423;SDS011;65257;52.104;4.268;2023-02-17T04:33:23;28.88;;;9.30;;
76423;SDS011;65257;52.104;4.268;2023-02-17T04:35:51;29.55;;;9.02;;
76423;SDS011;65257;52.104;4.268;2023-02-17T04:38:37;41.42;;;11.63;;
76423;SDS011;65257;52.104;4.268;2023-02-17T04:41:03;37.85;;;10.38;;
76423;SDS011;65257;52.104;4.268;2023-02-17T04:43:30;34.35;;;9.90;;
76423;SDS011;65257;52.104;4.268;2023-02-17T04:45:55;45.88;;;13.98;;
76423;SDS011;65257;52.104;4.268;2023-02-17T04:48:21;49.10;;;13.65;;
76423;SDS011;65257;52.104;4.268;2023-02-17T04:50:47;50.63;;;10.45;;
76423;SDS011;65257;52.104;4.268;2023-02-17T04:53:12;43.53;;;12.60;;
76423;SDS011;65257;52.104;4.268;2023-02-17T04:55:38;44.97;;;10.73;;
76423;SDS011;65257;52.104;4.268;2023-02-17T04:58:04;41.03;;;10.77;;
76423;SDS011;65257;52.104;4.268;2023-02-17T05:00:30;42.58;;;10.85;;
76423;SDS011;65257;52.104;4.268;2023-02-17T05:02:55;31.02;;;8.82;;
76423;SDS011;65257;52.104;4.268;2023-02-17T05:05:20;61.30;;;14.80;;
76423;SDS011;65257;52.104;4.268;2023-02-17T05:07:46;52.28;;;14.20;;
76423;SDS011;65257;52.104;4.268;2023-02-17T05:10:13;44.25;;;12.90;;
76423;SDS011;65257;52.104;4.268;2023-02-17T05:12:40;39.85;;;11.30;;
76423;SDS011;65257;52.104;4.268;2023-02-17T05:15:06;43.67;;;12.77;;
76423;SDS011;65257;52.104;4.268;2023-02-17T05:17:32;32.65;;;11.48;;
76423;SDS011;65257;52.104;4.268;2023-02-17T05:19:58;41.25;;;12.82;;
76423;SDS011;65257;52.104;4.268;2023-02-17T05:22:24;39.90;;;12.05;;
76423;SDS011;65257;52.104;4.268;2023-02-17T05:24:50;51.83;;;12.50;;
76423;SDS011;65257;52.104;4.268;2023-02-17T05:27:16;36.28;;;11.18;;
76423;SDS011;65257;52.104;4.268;2023-02-17T05:29:41;30.70;;;10.57;;
76423;SDS011;65257;52.104;4.268;2023-02-17T05:32:06;49.17;;;15.90;;
76423;SDS011;65257;52.104;4.268;2023-02-17T05:34:32;37.08;;;12.10;;
76423;SDS011;65257;52.104;4.268;2023-02-17T05:36:57;29.98;;;12.60;;
76423;SDS011;65257;52.104;4.268;2023-02-17T05:39:23;53.45;;;15.38;;
76423;SDS011;65257;52.104;4.268;2023-02-17T05:41:48;30.98;;;11.57;;
76423;SDS011;65257;52.104;4.268;2023-02-17T05:44:13;38.85;;;12.45;;
76423;SDS011;65257;52.104;4.268;2023-02-17T05:46:39;46.15;;;14.57;;
76423;SDS011;65257;52.104;4.268;2023-02-17T05:49:04;27.30;;;10.38;;
76423;SDS011;65257;52.104;4.268;2023-02-17T05:51:30;34.45;;;12.50;;
76423;SDS011;65257;52.104;4.268;2023-02-17T05:53:55;35.40;;;12.40;;
76423;SDS011;65257;52.104;4.268;2023-02-17T05:56:20;37.70;;;12.63;;
76423;SDS011;65257;52.104;4.268;2023-02-17T05:58:46;41.88;;;12.32;;
76423;SDS011;65257;52.104;4.268;2023-02-17T06:01:11;25.67;;;11.10;;
76423;SDS011;65257;52.104;4.268;2023-02-17T06:03:37;33.53;;;11.80;;
76423;SDS011;65257;52.104;4.268;2023-02-17T06:06:02;36.15;;;11.38;;
76423;SDS011;65257;52.104;4.268;2023-02-17T06:08:29;33.10;;;11.73;;
76423;SDS011;65257;52.104;4.268;2023-02-17T06:10:54;33.63;;;12.38;;
76423;SDS011;65257;52.104;4.268;2023-02-17T06:13:20;30.73;;;11.02;;
76423;SDS011;65257;52.104;4.268;2023-02-17T06:15:45;40.58;;;12.77;;
76423;SDS011;65257;52.104;4.268;2023-02-17T06:18:11;42.30;;;10.75;;
76423;SDS011;65257;52.104;4.268;2023-02-17T06:20:37;26.02;;;8.27;;
76423;SDS011;65257;52.104;4.268;2023-02-17T06:23:02;23.00;;;10.38;;
76423;SDS011;65257;52.104;4.268;2023-02-17T06:25:28;25.95;;;10.70;;
76423;SDS011;65257;52.104;4.268;2023-02-17T06:27:53;32.28;;;11.60;;
76423;SDS011;65257;52.104;4.268;2023-02-17T06:30:18;36.00;;;10.93;;
76423;SDS011;65257;52.104;4.268;2023-02-17T06:32:45;34.90;;;12.48;;
76423;SDS011;65257;52.104;4.268;2023-02-17T06:35:11;29.63;;;10.15;;
76423;SDS011;65257;52.104;4.268;2023-02-17T06:37:36;27.75;;;10.10;;
76423;SDS011;65257;52.104;4.268;2023-02-17T06:40:02;25.48;;;10.25;;
76423;SDS011;65257;52.104;4.268;2023-02-17T06:42:28;34.65;;;11.00;;
76423;SDS011;65257;52.104;4.268;2023-02-17T06:44:54;23.77;;;9.52;;
76423;SDS011;65257;52.104;4.268;2023-02-17T06:47:19;25.65;;;9.63;;
76423;SDS011;65257;52.104;4.268;2023-02-17T06:49:44;41.08;;;11.07;;
76423;SDS011;65257;52.104;4.268;2023-02-17T06:52:10;38.38;;;11.52;;
76423;SDS011;65257;52.104;4.268;2023-02-17T06:54:35;26.70;;;9.13;;
76423;SDS011;65257;52.104;4.268;2023-02-17T06:57:01;43.85;;;9.90;;
76423;SDS011;65257;52.104;4.268;2023-02-17T06:59:26;36.00;;;11.25;;
76423;SDS011;65257;52.104;4.268;2023-02-17T07:01:52;40.13;;;11.20;;
76423;SDS011;65257;52.104;4.268;2023-02-17T07:04:17;46.80;;;13.27;;
76423;SDS011;65257;52.104;4.268;2023-02-17T07:06:43;41.33;;;11.80;;
76423;SDS011;65257;52.104;4.268;2023-02-17T07:09:08;40.85;;;12.73;;
76423;SDS011;65257;52.104;4.268;2023-02-17T07:11:37;38.15;;;10.90;;
76423;SDS011;65257;52.104;4.268;2023-02-17T07:14:03;36.97;;;10.23;;
76423;SDS011;65257;52.104;4.268;2023-02-17T07:16:28;36.97;;;11.10;;
76423;SDS011;65257;52.104;4.268;2023-02-17T07:18:54;44.70;;;11.10;;
76423;SDS011;65257;52.104;4.268;2023-02-17T07:21:19;51.58;;;13.23;;
76423;SDS011;65257;52.104;4.268;2023-02-17T07:23:45;39.05;;;12.10;;
76423;SDS011;65257;52.104;4.268;2023-02-17T07:26:10;34.78;;;11.25;;
76423;SDS011;65257;52.104;4.268;2023-02-17T07:28:36;47.35;;;12.07;;
76423;SDS011;65257;52.104;4.268;2023-02-17T07:31:10;41.85;;;11.85;;
76423;SDS011;65257;52.104;4.268;2023-02-17T07:33:38;38.65;;;10.68;;
76423;SDS011;65257;52.104;4.268;2023-02-17T07:36:08;33.40;;;9.93;;
76423;SDS011;65257;52.104;4.268;2023-02-17T07:38:37;58.47;;;11.70;;
76423;SDS011;65257;52.104;4.268;2023-02-17T07:43:46;34.00;;;10.02;;
76423;SDS011;65257;52.104;4.268;2023-02-17T07:46:15;29.80;;;8.02;;
76423;SDS011;65257;52.104;4.268;2023-02-17T07:48:47;35.58;;;11.00;;
76423;SDS011;65257;52.104;4.268;2023-02-17T07:51:22;40.70;;;11.38;;
76423;SDS011;65257;52.104;4.268;2023-02-17T07:53:49;34.65;;;9.68;;
76423;SDS011;65257;52.104;4.268;2023-02-17T07:56:22;28.83;;;10.25;;
76423;SDS011;65257;52.104;4.268;2023-02-17T07:59:02;35.70;;;10.90;;
76423;SDS011;65257;52.104;4.268;2023-02-17T08:01:31;30.67;;;10.30;;
76423;SDS011;65257;52.104;4.268;2023-02-17T08:03:57;30.45;;;10.05;;
76423;SDS011;65257;52.104;4.268;2023-02-17T08:06:23;35.70;;;10.45;;
76423;SDS011;65257;52.104;4.268;2023-02-17T08:08:50;32.65;;;9.15;;
76423;SDS011;65257;52.104;4.268;2023-02-17T08:11:34;26.05;;;7.75;;
76423;SDS011;65257;52.104;4.268;2023-02-17T08:14:22;29.08;;;8.48;;
76423;SDS011;65257;52.104;4.268;2023-02-17T08:19:16;36.22;;;10.40;;
76423;SDS011;65257;52.104;4.268;2023-02-17T08:21:41;26.02;;;8.98;;
76423;SDS011;65257;52.104;4.268;2023-02-17T08:24:07;34.75;;;9.43;;
76423;SDS011;65257;52.104;4.268;2023-02-17T08:26:32;32.53;;;9.68;;
76423;SDS011;65257;52.104;4.268;2023-02-17T08:28:58;26.60;;;7.95;;
76423;SDS011;65257;52.104;4.268;2023-02-17T08:31:24;24.63;;;8.85;;
76423;SDS011;65257;52.104;4.268;2023-02-17T08:33:52;39.78;;;9.13;;
76423;SDS011;65257;52.104;4.268;2023-02-17T08:36:20;25.88;;;8.60;;
76423;SDS011;65257;52.104;4.268;2023-02-17T08:38:50;29.98;;;6.72;;
76423;SDS011;65257;52.104;4.268;2023-02-17T08:41:19;27.92;;;7.82;;
76423;SDS011;65257;52.104;4.268;2023-02-17T08:43:55;31.27;;;7.95;;
76423;SDS011;65257;52.104;4.268;2023-02-17T08:46:21;29.42;;;8.63;;
76423;SDS011;65257;52.104;4.268;2023-02-17T08:49:07;30.38;;;8.23;;
76423;SDS011;65257;52.104;4.268;2023-02-17T08:51:33;24.20;;;6.70;;
76423;SDS011;65257;52.104;4.268;2023-02-17T08:53:59;38.75;;;8.85;;
76423;SDS011;65257;52.104;4.268;2023-02-17T08:56:29;33.92;;;8.82;;
76423;SDS011;65257;52.104;4.268;2023-02-17T08:58:55;36.03;;;9.45;;
76423;SDS011;65257;52.104;4.268;2023-02-17T09:01:21;34.50;;;7.35;;
76423;SDS011;65257;52.104;4.268;2023-02-17T09:03:48;31.92;;;8.50;;
76423;SDS011;65257;52.104;4.268;2023-02-17T09:06:15;38.38;;;10.75;;
76423;SDS011;65257;52.104;4.268;2023-02-17T09:08:44;35.53;;;10.10;;
76423;SDS011;65257;52.104;4.268;2023-02-17T09:11:10;35.63;;;9.10;;
76423;SDS011;65257;52.104;4.268;2023-02-17T09:13:36;33.30;;;7.40;;
76423;SDS011;65257;52.104;4.268;2023-02-17T09:16:03;25.98;;;7.80;;
76423;SDS011;65257;52.104;4.268;2023-02-17T09:18:32;43.53;;;10.50;;
76423;SDS011;65257;52.104;4.268;2023-02-17T09:21:06;44.47;;;10.20;;
76423;SDS011;65257;52.104;4.268;2023-02-17T09:23:34;27.85;;;8.48;;
76423;SDS011;65257;52.104;4.268;2023-02-17T09:26:03;28.75;;;10.80;;
76423;SDS011;65257;52.104;4.268;2023-02-17T09:28:31;38.13;;;9.80;;
76423;SDS011;65257;52.104;4.268;2023-02-17T09:30:57;34.08;;;9.50;;
76423;SDS011;65257;52.104;4.268;2023-02-17T09:33:23;30.30;;;9.65;;
76423;SDS011;65257;52.104;4.268;2023-02-17T09:35:49;31.92;;;9.88;;
76423;SDS011;65257;52.104;4.268;2023-02-17T09:38:14;30.42;;;8.80;;
76423;SDS011;65257;52.104;4.268;2023-02-17T09:40:42;31.98;;;9.23;;
76423;SDS011;65257;52.104;4.268;2023-02-17T09:43:14;22.30;;;8.13;;
76423;SDS011;65257;52.104;4.268;2023-02-17T09:45:43;31.50;;;9.02;;
76423;SDS011;65257;52.104;4.268;2023-02-17T09:48:13;41.58;;;10.18;;
76423;SDS011;65257;52.104;4.268;2023-02-17T09:50:43;41.80;;;9.73;;
76423;SDS011;65257;52.104;4.268;2023-02-17T09:53:19;30.55;;;9.30;;
76423;SDS011;65257;52.104;4.268;2023-02-17T09:55:52;29.38;;;10.20;;
76423;SDS011;65257;52.104;4.268;2023-02-17T10:00:51;38.40;;;12.57;;
76423;SDS011;65257;52.104;4.268;2023-02-17T10:03:24;29.98;;;8.63;;
76423;SDS011;65257;52.104;4.268;2023-02-17T10:14:16;34.85;;;9.57;;
76423;SDS011;65257;52.104;4.268;2023-02-17T10:17:09;39.67;;;9.88;;
76423;SDS011;65257;52.104;4.268;2023-02-17T10:19:40;25.13;;;8.43;;
76423;SDS011;65257;52.104;4.268;2023-02-17T10:22:29;32.78;;;7.82;;
76423;SDS011;65257;52.104;4.268;2023-02-17T10:24:56;37.22;;;8.68;;
76423;SDS011;65257;52.104;4.268;2023-02-17T10:27:27;34.63;;;9.18;;
76423;SDS011;65257;52.104;4.268;2023-02-17T10:30:22;29.63;;;8.30;;
76423;SDS011;65257;52.104;4.268;2023-02-17T10:32:58;31.77;;;8.77;;
76423;SDS011;65257;52.104;4.268;2023-02-17T10:40:56;32.03;;;9.25;;
76423;SDS011;65257;52.104;4.268;2023-02-17T10:43:28;31.13;;;8.52;;
76423;SDS011;65257;52.104;4.268;2023-02-17T10:45:56;33.53;;;9.30;;
76423;SDS011;65257;52.104;4.268;2023-02-17T10:50:59;27.40;;;10.20;;
76423;SDS011;65257;52.104;4.268;2023-02-17T10:53:29;31.58;;;8.45;;
76423;SDS011;65257;52.104;4.268;2023-02-17T10:58:44;33.65;;;7.95;;
76423;SDS011;65257;52.104;4.268;2023-02-17T11:01:16;33.90;;;9.98;;
76423;SDS011;65257;52.104;4.268;2023-02-17T11:03:42;41.40;;;9.85;;
76423;SDS011;65257;52.104;4.268;2023-02-17T11:06:21;37.15;;;9.60;;
76423;SDS011;65257;52.104;4.268;2023-02-17T11:17:01;30.02;;;8.15;;
76423;SDS011;65257;52.104;4.268;2023-02-17T11:19:58;36.13;;;7.88;;
76423;SDS011;65257;52.104;4.268;2023-02-17T11:22:42;38.55;;;9.27;;
76423;SDS011;65257;52.104;4.268;2023-02-17T11:27:58;31.85;;;8.43;;
76423;SDS011;65257;52.104;4.268;2023-02-17T11:30:50;27.27;;;7.40;;
76423;SDS011;65257;52.104;4.268;2023-02-17T11:33:22;32.58;;;9.05;;
76423;SDS011;65257;52.104;4.268;2023-02-17T11:35:54;16.35;;;5.75;;
76423;SDS011;65257;52.104;4.268;2023-02-17T11:38:25;27.75;;;6.75;;
76423;SDS011;65257;52.104;4.268;2023-02-17T11:41:05;42.72;;;9.30;;
76423;SDS011;65257;52.104;4.268;2023-02-17T11:43:32;36.90;;;8.13;;
76423;SDS011;65257;52.104;4.268;2023-02-17T11:46:17;48.40;;;8.48;;
76423;SDS011;65257;52.104;4.268;2023-02-17T11:48:49;40.97;;;8.50;;
76423;SDS011;65257;52.104;4.268;2023-02-17T11:54:14;28.05;;;7.45;;
76423;SDS011;65257;52.104;4.268;2023-02-17T11:57:13;33.60;;;6.80;;
76423;SDS011;65257;52.104;4.268;2023-02-17T12:02:40;39.33;;;8.93;;
76423;SDS011;65257;52.104;4.268;2023-02-17T12:07:38;36.23;;;7.17;;
76423;SDS011;65257;52.104;4.268;2023-02-17T12:13:10;36.92;;;7.72;;
76423;SDS011;65257;52.104;4.268;2023-02-17T12:18:35;42.13;;;7.68;;
76423;SDS011;65257;52.104;4.268;2023-02-17T12:21:28;33.63;;;6.63;;
76423;SDS011;65257;52.104;4.268;2023-02-17T12:27:05;29.38;;;5.70;;
76423;SDS011;65257;52.104;4.268;2023-02-17T12:32:23;44.58;;;8.68;;
76423;SDS011;65257;52.104;4.268;2023-02-17T12:34:54;38.55;;;7.22;;
76423;SDS011;65257;52.104;4.268;2023-02-17T12:37:24;39.20;;;7.28;;
76423;SDS011;65257;52.104;4.268;2023-02-17T12:39:57;35.88;;;6.75;;
76423;SDS011;65257;52.104;4.268;2023-02-17T12:45:05;38.90;;;7.40;;
76423;SDS011;65257;52.104;4.268;2023-02-17T12:52:50;28.50;;;6.38;;
76423;SDS011;65257;52.104;4.268;2023-02-17T12:55:21;37.20;;;6.65;;
76423;SDS011;65257;52.104;4.268;2023-02-17T12:58:17;37.30;;;7.15;;
76423;SDS011;65257;52.104;4.268;2023-02-17T13:00:47;23.45;;;5.53;;
76423;SDS011;65257;52.104;4.268;2023-02-17T13:03:18;31.10;;;6.63;;
76423;SDS011;65257;52.104;4.268;2023-02-17T13:05:54;23.80;;;6.05;;
76423;SDS011;65257;52.104;4.268;2023-02-17T13:08:40;28.45;;;6.78;;
76423;SDS011;65257;52.104;4.268;2023-02-17T13:11:24;27.60;;;5.72;;
76423;SDS011;65257;52.104;4.268;2023-02-17T13:13:52;44.97;;;7.13;;
76423;SDS011;65257;52.104;4.268;2023-02-17T13:16:17;29.63;;;6.90;;
76423;SDS011;65257;52.104;4.268;2023-02-17T13:18:44;24.30;;;6.28;;
76423;SDS011;65257;52.104;4.268;2023-02-17T13:23:59;32.92;;;5.78;;
76423;SDS011;65257;52.104;4.268;2023-02-17T13:26:37;32.08;;;6.68;;
76423;SDS011;65257;52.104;4.268;2023-02-17T13:31:44;35.28;;;5.88;;
76423;SDS011;65257;52.104;4.268;2023-02-17T13:34:22;33.17;;;5.18;;
76423;SDS011;65257;52.104;4.268;2023-02-17T13:36:49;28.40;;;6.20;;
76423;SDS011;65257;52.104;4.268;2023-02-17T13:41:49;29.75;;;5.45;;
76423;SDS011;65257;52.104;4.268;2023-02-17T13:44:29;22.30;;;3.72;;
76423;SDS011;65257;52.104;4.268;2023-02-17T13:47:05;26.58;;;5.85;;
76423;SDS011;65257;52.104;4.268;2023-02-17T13:49:38;33.10;;;5.72;;
76423;SDS011;65257;52.104;4.268;2023-02-17T13:52:14;31.65;;;5.55;;
76423;SDS011;65257;52.104;4.268;2023-02-17T13:54:51;31.98;;;6.55;;
76423;SDS011;65257;52.104;4.268;2023-02-17T13:57:38;25.95;;;5.32;;
76423;SDS011;65257;52.104;4.268;2023-02-17T14:00:05;28.00;;;5.13;;
76423;SDS011;65257;52.104;4.268;2023-02-17T14:02:32;30.02;;;6.32;;
76423;SDS011;65257;52.104;4.268;2023-02-17T14:04:58;37.40;;;7.18;;
76423;SDS011;65257;52.104;4.268;2023-02-17T14:07:31;40.65;;;6.55;;
76423;SDS011;65257;52.104;4.268;2023-02-17T14:09:58;27.85;;;6.22;;
76423;SDS011;65257;52.104;4.268;2023-02-17T14:12:24;32.15;;;6.95;;
76423;SDS011;65257;52.104;4.268;2023-02-17T14:14:54;30.38;;;5.28;;
76423;SDS011;65257;52.104;4.268;2023-02-17T14:17:29;29.52;;;4.68;;
76423;SDS011;65257;52.104;4.268;2023-02-17T14:19:56;30.83;;;6.93;;
76423;SDS011;65257;52.104;4.268;2023-02-17T14:22:29;24.63;;;5.68;;
76423;SDS011;65257;52.104;4.268;2023-02-17T14:25:13;31.27;;;6.28;;
76423;SDS011;65257;52.104;4.268;2023-02-17T14:27:51;24.35;;;4.63;;
76423;SDS011;65257;52.104;4.268;2023-02-17T14:33:03;28.67;;;5.03;;
76423;SDS011;65257;52.104;4.268;2023-02-17T14:35:29;27.83;;;5.38;;
76423;SDS011;65257;52.104;4.268;2023-02-17T14:38:05;41.25;;;4.93;;
76423;SDS011;65257;52.104;4.268;2023-02-17T14:40:42;26.13;;;4.38;;
76423;SDS011;65257;52.104;4.268;2023-02-17T14:43:08;32.50;;;6.45;;
76423;SDS011;65257;52.104;4.268;2023-02-17T14:45:33;28.10;;;5.35;;
76423;SDS011;65257;52.104;4.268;2023-02-17T14:47:59;35.45;;;6.35;;
76423;SDS011;65257;52.104;4.268;2023-02-17T14:50:24;33.20;;;6.35;;
76423;SDS011;65257;52.104;4.268;2023-02-17T14:52:50;35.58;;;5.38;;
76423;SDS011;65257;52.104;4.268;2023-02-17T14:55:39;33.63;;;6.40;;
76423;SDS011;65257;52.104;4.268;2023-02-17T14:58:07;41.60;;;6.22;;
76423;SDS011;65257;52.104;4.268;2023-02-17T15:00:35;29.40;;;6.05;;
76423;SDS011;65257;52.104;4.268;2023-02-17T15:03:00;30.58;;;5.13;;
76423;SDS011;65257;52.104;4.268;2023-02-17T15:05:26;39.28;;;5.55;;
76423;SDS011;65257;52.104;4.268;2023-02-17T15:07:51;29.35;;;5.57;;
76423;SDS011;65257;52.104;4.268;2023-02-17T15:10:24;34.03;;;6.35;;
76423;SDS011;65257;52.104;4.268;2023-02-17T15:12:52;42.28;;;7.57;;
76423;SDS011;65257;52.104;4.268;2023-02-17T15:15:18;40.70;;;6.03;;
76423;SDS011;65257;52.104;4.268;2023-02-17T15:17:43;38.95;;;6.38;;
76423;SDS011;65257;52.104;4.268;2023-02-17T15:20:09;42.20;;;6.32;;
76423;SDS011;65257;52.104;4.268;2023-02-17T15:22:36;40.83;;;6.88;;
76423;SDS011;65257;52.104;4.268;2023-02-17T15:25:16;33.38;;;5.22;;
76423;SDS011;65257;52.104;4.268;2023-02-17T15:27:44;25.98;;;5.22;;
76423;SDS011;65257;52.104;4.268;2023-02-17T15:30:14;33.25;;;6.05;;
76423;SDS011;65257;52.104;4.268;2023-02-17T15:32:42;36.53;;;6.13;;
76423;SDS011;65257;52.104;4.268;2023-02-17T15:35:14;35.28;;;6.28;;
76423;SDS011;65257;52.104;4.268;2023-02-17T15:37:42;38.92;;;6.43;;
76423;SDS011;65257;52.104;4.268;2023-02-17T15:40:15;30.08;;;5.03;;
76423;SDS011;65257;52.104;4.268;2023-02-17T15:42:57;38.25;;;5.28;;
76423;SDS011;65257;52.104;4.268;2023-02-17T15:45:27;31.70;;;5.68;;
76423;SDS011;65257;52.104;4.268;2023-02-17T15:48:04;43.47;;;6.03;;
76423;SDS011;65257;52.104;4.268;2023-02-17T15:50:32;39.28;;;6.50;;
76423;SDS011;65257;52.104;4.268;2023-02-17T15:52:58;32.88;;;5.45;;
76423;SDS011;65257;52.104;4.268;2023-02-17T15:55:29;35.70;;;5.88;;
76423;SDS011;65257;52.104;4.268;2023-02-17T15:57:55;36.08;;;6.38;;
76423;SDS011;65257;52.104;4.268;2023-02-17T16:00:24;41.95;;;6.78;;
76423;SDS011;65257;52.104;4.268;2023-02-17T16:02:51;36.83;;;5.38;;
76423;SDS011;65257;52.104;4.268;2023-02-17T16:05:18;30.70;;;5.32;;
76423;SDS011;65257;52.104;4.268;2023-02-17T16:07:45;42.60;;;5.50;;
76423;SDS011;65257;52.104;4.268;2023-02-17T16:10:12;32.72;;;5.00;;
76423;SDS011;65257;52.104;4.268;2023-02-17T16:12:39;37.45;;;5.35;;
76423;SDS011;65257;52.104;4.268;2023-02-17T16:15:06;31.13;;;5.80;;
76423;SDS011;65257;52.104;4.268;2023-02-17T16:17:44;36.63;;;6.00;;
76423;SDS011;65257;52.104;4.268;2023-02-17T16:20:12;31.80;;;5.75;;
76423;SDS011;65257;52.104;4.268;2023-02-17T16:22:49;43.30;;;7.22;;
76423;SDS011;65257;52.104;4.268;2023-02-17T16:25:15;34.58;;;5.82;;
76423;SDS011;65257;52.104;4.268;2023-02-17T16:27:42;38.13;;;6.85;;
76423;SDS011;65257;52.104;4.268;2023-02-17T16:30:22;35.00;;;5.63;;
76423;SDS011;65257;52.104;4.268;2023-02-17T16:32:55;33.47;;;4.70;;
76423;SDS011;65257;52.104;4.268;2023-02-17T16:35:22;31.63;;;5.72;;